createdAt,value
2022-09-14T00:02:08.397Z,13.20
2022-09-14T00:04:40.290Z,9.00
2022-09-14T00:07:11.782Z,12.00
2022-09-14T00:09:41.835Z,11.20
2022-09-14T00:12:13.713Z,11.80
2022-09-14T00:14:43.842Z,10.00
2022-09-14T00:17:14.715Z,10.60
2022-09-14T00:19:46.249Z,11.00
2022-09-14T00:22:16.780Z,8.40
2022-09-14T00:24:49.377Z,9.40
2022-09-14T00:27:19.691Z,9.60
2022-09-14T00:29:52.230Z,10.20
2022-09-14T00:32:23.570Z,12.20
2022-09-14T00:34:54.371Z,10.00
2022-09-14T00:37:24.716Z,10.00
2022-09-14T00:39:56.431Z,10.00
2022-09-14T00:42:27.676Z,9.40
2022-09-14T00:45:04.933Z,10.80
2022-09-14T00:47:34.961Z,11.80
2022-09-14T00:50:07.053Z,6.80
2022-09-14T00:52:40.198Z,9.20
2022-09-14T00:55:17.717Z,9.80
2022-09-14T00:57:53.698Z,10.40
2022-09-14T01:00:27.124Z,11.20
2022-09-14T01:03:01.366Z,10.20
2022-09-14T01:05:59.664Z,11.40
2022-09-14T01:08:45.957Z,8.40
2022-09-14T01:11:27.201Z,10.20
2022-09-14T01:14:15.589Z,9.20
2022-09-14T01:17:03.646Z,8.60
2022-09-14T01:19:43.013Z,10.00
2022-09-14T01:22:24.028Z,10.00
2022-09-14T01:25:08.395Z,8.20
2022-09-14T01:27:46.257Z,10.60
2022-09-14T01:30:24.074Z,9.60
2022-09-14T01:33:06.057Z,10.00
2022-09-14T01:35:52.674Z,10.80
2022-09-14T01:38:34.692Z,8.00
2022-09-14T01:41:12.187Z,11.00
2022-09-14T01:44:08.647Z,10.40
2022-09-14T01:46:49.163Z,9.25
2022-09-14T01:49:29.218Z,10.00
2022-09-14T01:52:08.450Z,10.60
2022-09-14T01:54:58.817Z,11.60
2022-09-14T01:57:41.002Z,10.00
2022-09-14T02:00:17.833Z,10.25
2022-09-14T02:03:14.784Z,11.75
2022-09-14T02:06:00.825Z,9.20
2022-09-14T02:08:34.371Z,10.00
2022-09-14T02:11:08.203Z,12.00
2022-09-14T02:13:40.795Z,10.40
2022-09-14T02:16:12.315Z,10.00
2022-09-14T02:18:44.925Z,12.25
2022-09-14T02:21:37.146Z,11.50
2022-09-14T02:24:07.772Z,10.20
2022-09-14T02:26:40.345Z,12.00
2022-09-14T02:29:14.129Z,12.25
2022-09-14T02:32:02.826Z,11.25
2022-09-14T02:34:36.856Z,10.50
2022-09-14T02:37:37.535Z,12.25
2022-09-14T02:40:25.314Z,14.25
2022-09-14T02:43:12.693Z,11.00
2022-09-14T02:46:02.579Z,12.75
2022-09-14T02:49:00.191Z,11.50
2022-09-14T02:51:44.662Z,13.00
2022-09-14T02:54:42.974Z,12.00
2022-09-14T02:57:13.271Z,11.50
2022-09-14T02:59:43.784Z,13.25
2022-09-14T03:02:14.412Z,12.50
2022-09-14T03:04:47.020Z,14.50
2022-09-14T03:07:17.864Z,13.00
2022-09-14T03:09:48.428Z,11.75
2022-09-14T03:12:20.263Z,13.00
2022-09-14T03:14:51.248Z,12.00
2022-09-14T03:17:22.269Z,13.75
2022-09-14T03:19:53.080Z,14.00
2022-09-14T03:22:24.885Z,14.25
2022-09-14T03:24:54.196Z,13.75
2022-09-14T03:27:25.266Z,12.00
2022-09-14T03:29:55.956Z,13.75
2022-09-14T03:32:27.536Z,13.00
2022-09-14T03:34:58.578Z,13.50
2022-09-14T03:37:28.926Z,13.00
2022-09-14T03:40:01.450Z,11.75
2022-09-14T03:42:34.817Z,14.00
2022-09-14T03:45:05.801Z,13.00
2022-09-14T03:47:36.676Z,14.00
2022-09-14T03:50:10.098Z,12.75
2022-09-14T03:52:41.229Z,12.25
2022-09-14T03:55:13.128Z,13.00
2022-09-14T03:57:46.597Z,14.50
2022-09-14T04:00:16.624Z,14.50
2022-09-14T04:02:49.426Z,14.50
2022-09-14T04:05:24.859Z,13.50
2022-09-14T04:07:54.083Z,15.75
2022-09-14T04:10:24.233Z,15.00
2022-09-14T04:12:56.022Z,12.00
2022-09-14T04:15:26.841Z,14.25
2022-09-14T04:17:57.769Z,13.00
2022-09-14T04:20:29.449Z,14.50
2022-09-14T04:23:00.068Z,14.00
2022-09-14T04:25:32.754Z,15.00
2022-09-14T04:28:21.848Z,12.00
2022-09-14T04:31:04.467Z,14.25
2022-09-14T04:33:36.642Z,14.25
2022-09-14T04:36:13.272Z,12.50
2022-09-14T04:38:44.597Z,15.00
2022-09-14T04:41:19.391Z,15.00
2022-09-14T04:43:52.576Z,14.50
2022-09-14T04:46:34.173Z,15.50
2022-09-14T04:49:04.727Z,15.00
2022-09-14T04:51:39.502Z,13.25
2022-09-14T04:54:17.474Z,15.75
2022-09-14T04:56:50.581Z,13.25
2022-09-14T04:59:20.696Z,14.00
2022-09-14T05:01:52.703Z,14.50
2022-09-14T05:04:23.445Z,15.25
2022-09-14T05:06:55.171Z,14.50
2022-09-14T05:09:29.645Z,14.25
2022-09-14T05:11:59.486Z,14.75
2022-09-14T05:14:31.690Z,14.75
2022-09-14T05:17:04.211Z,13.25
2022-09-14T05:19:41.149Z,14.75
2022-09-14T05:22:11.945Z,12.25
2022-09-14T05:24:42.169Z,14.25
2022-09-14T05:27:12.638Z,16.00
2022-09-14T05:29:43.572Z,14.25
2022-09-14T05:32:13.985Z,14.50
2022-09-14T05:34:46.363Z,16.25
2022-09-14T05:37:18.885Z,14.00
2022-09-14T05:39:53.889Z,17.00
2022-09-14T05:42:25.629Z,16.75
2022-09-14T05:45:05.086Z,15.25
2022-09-14T05:47:39.212Z,15.00
2022-09-14T05:50:10.473Z,15.25
2022-09-14T05:52:40.418Z,16.00
2022-09-14T05:55:13.264Z,14.75
2022-09-14T05:57:44.318Z,15.50
2022-09-14T06:00:16.246Z,13.25
2022-09-14T06:02:52.251Z,14.25
2022-09-14T06:05:23.266Z,14.50
2022-09-14T06:07:55.745Z,15.00
2022-09-14T06:10:28.645Z,15.25
2022-09-14T06:13:01.249Z,14.25
2022-09-14T06:15:32.717Z,14.75
2022-09-14T06:18:03.209Z,16.00
2022-09-14T06:20:33.427Z,15.50
2022-09-14T06:23:04.218Z,15.00
2022-09-14T06:25:34.785Z,12.50
2022-09-14T06:28:05.872Z,14.00
2022-09-14T06:30:38.121Z,15.00
2022-09-14T06:33:09.781Z,14.75
2022-09-14T06:35:42.291Z,15.25
2022-09-14T06:38:13.157Z,15.50
2022-09-14T06:40:53.234Z,14.50
2022-09-14T06:43:23.692Z,14.00
2022-09-14T06:46:09.563Z,15.25
2022-09-14T06:48:42.612Z,14.25
2022-09-14T06:51:28.417Z,14.25
2022-09-14T06:54:01.391Z,14.00
2022-09-14T06:56:35.029Z,14.50
2022-09-14T06:59:06.490Z,13.25
2022-09-14T07:01:38.559Z,11.00
2022-09-14T07:04:11.533Z,15.75
2022-09-14T07:06:46.264Z,15.00
2022-09-14T07:09:19.080Z,12.00
2022-09-14T07:11:51.236Z,13.00
2022-09-14T07:14:21.465Z,16.00
2022-09-14T07:16:52.840Z,14.25
2022-09-14T07:19:26.101Z,14.00
2022-09-14T07:21:59.872Z,15.00
2022-09-14T07:24:30.086Z,15.00
2022-09-14T07:27:07.363Z,14.50
2022-09-14T07:29:37.307Z,15.00
2022-09-14T07:32:08.191Z,14.25
2022-09-14T07:34:39.227Z,12.25
2022-09-14T07:37:09.693Z,14.25
2022-09-14T07:39:40.705Z,14.25
2022-09-14T07:42:10.589Z,13.00
2022-09-14T07:44:41.828Z,15.75
2022-09-14T07:47:13.897Z,14.50
2022-09-14T07:49:47.669Z,15.75
2022-09-14T07:52:20.800Z,15.00
2022-09-14T07:54:50.625Z,16.00
2022-09-14T07:57:39.504Z,16.00
2022-09-14T08:00:13.778Z,15.75
2022-09-14T08:02:44.657Z,14.00
2022-09-14T08:05:17.624Z,15.75
2022-09-14T08:07:49.029Z,14.25
2022-09-14T08:10:22.879Z,14.50
2022-09-14T08:12:57.756Z,16.00
2022-09-14T08:15:28.800Z,13.00
2022-09-14T08:18:01.121Z,16.00
2022-09-14T08:20:31.917Z,12.75
2022-09-14T08:23:03.517Z,16.00
2022-09-14T08:25:34.586Z,14.50
2022-09-14T08:28:07.257Z,13.25
2022-09-14T08:30:38.897Z,15.75
2022-09-14T08:33:11.976Z,15.75
2022-09-14T08:35:57.824Z,15.50
2022-09-14T08:38:28.686Z,15.25
2022-09-14T08:41:05.441Z,12.75
2022-09-14T08:43:35.144Z,15.25
2022-09-14T08:46:10.493Z,15.25
2022-09-14T08:48:47.663Z,16.25
2022-09-14T08:51:20.649Z,15.50
2022-09-14T08:53:54.938Z,14.25
2022-09-14T08:56:35.138Z,11.00
2022-09-14T08:59:07.236Z,15.25
2022-09-14T09:02:04.686Z,15.75
2022-09-14T09:04:40.662Z,15.00
2022-09-14T09:07:31.526Z,14.00
2022-09-14T09:10:02.580Z,15.50
2022-09-14T09:12:43.879Z,15.25
2022-09-14T09:15:26.869Z,16.00
2022-09-14T09:18:08.663Z,16.75
2022-09-14T09:20:46.907Z,15.25
2022-09-14T09:23:19.588Z,17.00
2022-09-14T09:25:49.108Z,15.00
2022-09-14T09:28:24.125Z,15.00
2022-09-14T09:31:02.455Z,13.50
2022-09-14T09:33:52.711Z,12.50
2022-09-14T09:36:35.247Z,16.00
2022-09-14T09:39:06.692Z,15.00
2022-09-14T09:42:11.540Z,14.00
2022-09-14T09:45:04.419Z,17.00
2022-09-14T09:47:38.860Z,15.25
2022-09-14T09:50:26.535Z,15.75
2022-09-14T09:53:06.698Z,15.75
2022-09-14T09:55:40.888Z,15.00
2022-09-14T09:58:45.415Z,16.75
2022-09-14T10:01:29.755Z,15.75
2022-09-14T10:04:17.986Z,15.00
2022-09-14T10:06:57.512Z,15.00
2022-09-14T10:09:32.063Z,17.00
2022-09-14T10:12:05.717Z,16.50
2022-09-14T10:14:41.757Z,14.50
2022-09-14T10:17:24.658Z,15.25
2022-09-14T10:19:57.205Z,16.00
2022-09-14T10:22:35.591Z,17.00
2022-09-14T10:25:15.475Z,14.75
2022-09-14T10:27:57.098Z,16.75
2022-09-14T10:30:50.706Z,15.00
2022-09-14T10:33:21.662Z,16.50
2022-09-14T10:36:04.282Z,16.50
2022-09-14T10:39:00.363Z,16.00
2022-09-14T10:41:48.238Z,16.00
2022-09-14T10:44:26.659Z,16.50
2022-09-14T10:47:19.404Z,16.50
2022-09-14T10:50:23.943Z,16.25
2022-09-14T10:53:13.235Z,14.50
2022-09-14T10:55:45.113Z,18.00
2022-09-14T10:58:33.548Z,14.75
2022-09-14T11:01:21.814Z,15.00
2022-09-14T11:04:08.270Z,16.50
2022-09-14T11:07:11.531Z,18.50
2022-09-14T11:10:01.236Z,17.25
2022-09-14T11:12:32.382Z,13.75
2022-09-14T11:15:20.108Z,17.75
2022-09-14T11:18:39.891Z,17.50
2022-09-14T11:21:19.392Z,14.00
2022-09-14T11:24:01.432Z,16.50
2022-09-14T11:26:56.149Z,19.25
2022-09-14T11:30:05.561Z,17.75
2022-09-14T11:32:54.623Z,16.25
2022-09-14T11:35:31.386Z,16.75
2022-09-14T11:38:05.273Z,15.25
2022-09-14T11:41:11.965Z,17.75
2022-09-14T11:44:01.695Z,16.75
2022-09-14T11:47:15.779Z,15.25
2022-09-14T11:50:09.783Z,17.75
2022-09-14T11:52:42.981Z,16.50
2022-09-14T11:55:20.071Z,18.00
2022-09-14T11:57:50.942Z,17.25
2022-09-14T12:00:28.250Z,13.75
2022-09-14T12:03:25.472Z,16.75
2022-09-14T12:05:58.012Z,19.00
2022-09-14T12:08:31.668Z,17.67
2022-09-14T12:11:11.012Z,18.75
2022-09-14T12:13:43.619Z,19.33
2022-09-14T12:16:14.535Z,17.67
2022-09-14T12:18:48.192Z,19.67
2022-09-14T12:21:25.045Z,15.67
2022-09-14T12:24:00.641Z,20.00
2022-09-14T12:26:34.521Z,20.00
2022-09-14T12:29:09.688Z,19.33
2022-09-14T12:31:50.963Z,19.33
2022-09-14T12:34:27.243Z,20.33
2022-09-14T12:36:59.209Z,18.33
2022-09-14T12:39:36.348Z,13.67
2022-09-14T12:42:35.105Z,19.67
2022-09-14T12:45:56.936Z,18.33
2022-09-14T12:48:48.937Z,19.67
2022-09-14T12:51:34.123Z,20.67
2022-09-14T12:54:11.746Z,19.00
2022-09-14T12:57:10.240Z,19.67
2022-09-14T13:00:05.979Z,19.50
2022-09-14T13:03:07.310Z,17.50
2022-09-14T13:05:37.246Z,19.50
2022-09-14T13:08:20.065Z,18.75
2022-09-14T13:10:55.167Z,17.75
2022-09-14T13:13:33.369Z,20.33
2022-09-14T13:16:07.535Z,18.75
2022-09-14T13:18:41.218Z,19.33
2022-09-14T13:21:26.120Z,20.67
2022-09-14T13:23:56.813Z,21.33
2022-09-14T13:26:30.513Z,20.67
2022-09-14T13:29:02.577Z,22.00
2022-09-14T13:31:38.306Z,21.25
2022-09-14T13:34:08.290Z,21.00
2022-09-14T13:36:46.610Z,21.33
2022-09-14T13:39:27.047Z,19.00
2022-09-14T13:42:01.831Z,21.25
2022-09-14T13:44:46.645Z,21.00
2022-09-14T13:47:22.857Z,20.00
2022-09-14T13:49:57.667Z,19.00
2022-09-14T13:52:56.975Z,19.75
2022-09-14T13:55:25.349Z,17.25
2022-09-14T13:58:16.142Z,17.00
2022-09-14T14:01:02.002Z,20.25
2022-09-14T14:03:32.186Z,18.50
2022-09-14T14:06:26.881Z,18.25
2022-09-14T14:08:58.824Z,19.75
2022-09-14T14:11:33.566Z,18.50
2022-09-14T14:14:30.856Z,18.50
2022-09-14T14:17:29.543Z,18.25
2022-09-14T14:20:01.536Z,16.25
2022-09-14T14:22:40.068Z,17.75
2022-09-14T14:25:36.237Z,15.50
2022-09-14T14:28:20.181Z,16.25
2022-09-14T14:30:50.000Z,15.25
2022-09-14T14:33:23.753Z,14.00
2022-09-14T14:35:55.894Z,14.00
2022-09-14T14:38:29.965Z,13.25
2022-09-14T14:41:00.470Z,15.00
2022-09-14T14:43:32.501Z,14.25
2022-09-14T14:46:03.076Z,13.75
2022-09-14T14:48:33.131Z,13.25
2022-09-14T14:51:04.062Z,13.25
2022-09-14T14:53:33.956Z,13.50
2022-09-14T14:56:05.773Z,15.00
2022-09-14T14:58:39.506Z,12.25
2022-09-14T15:01:10.915Z,13.00
2022-09-14T15:03:42.152Z,14.25
2022-09-14T15:06:24.757Z,13.75
2022-09-14T15:08:58.329Z,14.75
2022-09-14T15:11:29.524Z,10.75
2022-09-14T15:14:01.616Z,10.00
2022-09-14T15:16:31.849Z,15.25
2022-09-14T15:19:02.381Z,13.25
2022-09-14T15:21:33.197Z,15.25
2022-09-14T15:24:02.969Z,14.00
2022-09-14T15:26:36.099Z,14.50
2022-09-14T15:29:10.625Z,13.25
2022-09-14T15:31:42.897Z,14.25
2022-09-14T15:34:12.636Z,15.50
2022-09-14T15:36:53.375Z,14.50
2022-09-14T15:39:31.670Z,15.00
2022-09-14T15:42:03.022Z,12.75
2022-09-14T15:44:36.240Z,14.00
2022-09-14T15:47:09.637Z,14.25
2022-09-14T15:49:41.887Z,14.25
2022-09-14T15:52:13.961Z,13.75
2022-09-14T15:54:47.202Z,14.50
2022-09-14T15:57:17.990Z,14.75
2022-09-14T15:59:48.998Z,14.00
2022-09-14T16:02:21.904Z,15.75
2022-09-14T16:04:53.357Z,15.00
2022-09-14T16:07:25.676Z,14.50
2022-09-14T16:09:58.979Z,13.75
2022-09-14T16:12:32.317Z,14.50
2022-09-14T16:15:04.138Z,13.50
2022-09-14T16:17:34.604Z,14.50
2022-09-14T16:20:11.506Z,13.75
2022-09-14T16:22:40.867Z,14.00
2022-09-14T16:25:12.507Z,15.00
2022-09-14T16:27:43.548Z,15.25
2022-09-14T16:30:15.644Z,14.25
2022-09-14T16:32:47.023Z,16.00
2022-09-14T16:35:17.467Z,15.75
2022-09-14T16:37:46.965Z,12.00
2022-09-14T16:40:17.612Z,15.00
2022-09-14T16:42:52.960Z,16.50
2022-09-14T16:45:23.069Z,15.50
2022-09-14T16:47:55.143Z,16.25
2022-09-14T16:50:27.947Z,15.50
2022-09-14T16:53:01.791Z,15.50
2022-09-14T16:55:34.534Z,15.00
2022-09-14T16:58:06.953Z,16.00
2022-09-14T17:00:44.052Z,13.50
2022-09-14T17:03:15.592Z,16.25
2022-09-14T17:05:47.157Z,14.50
2022-09-14T17:08:19.755Z,13.25
2022-09-14T17:10:54.573Z,14.50
2022-09-14T17:13:28.209Z,13.75
2022-09-14T17:16:13.784Z,11.75
2022-09-14T17:18:50.918Z,12.75
2022-09-14T17:21:24.181Z,13.00
2022-09-14T17:23:55.559Z,12.75
2022-09-14T17:26:27.919Z,14.75
2022-09-14T17:28:59.771Z,14.75
2022-09-14T17:31:34.722Z,14.75
2022-09-14T17:34:06.181Z,14.50
2022-09-14T17:36:39.546Z,15.00
2022-09-14T17:39:12.953Z,12.00
2022-09-14T17:41:45.642Z,13.00
2022-09-14T17:44:17.285Z,13.50
2022-09-14T17:46:53.111Z,13.25
2022-09-14T17:49:25.993Z,15.50
2022-09-14T17:51:56.683Z,12.00
2022-09-14T17:54:32.316Z,13.00
2022-09-14T17:57:02.587Z,14.00
2022-09-14T17:59:33.477Z,13.00
2022-09-14T18:02:06.582Z,12.75
2022-09-14T18:04:39.028Z,13.75
2022-09-14T18:07:11.992Z,12.75
2022-09-14T18:09:42.590Z,13.00
2022-09-14T18:12:17.111Z,10.00
2022-09-14T18:14:48.433Z,10.75
2022-09-14T18:17:18.553Z,10.00
2022-09-14T18:19:48.732Z,12.50
2022-09-14T18:22:19.985Z,9.75
2022-09-14T18:24:51.055Z,11.25
2022-09-14T18:27:23.343Z,12.00
2022-09-14T18:29:54.323Z,13.00
2022-09-14T18:32:25.060Z,11.25
2022-09-14T18:34:56.641Z,11.00
2022-09-14T18:37:25.856Z,12.00
2022-09-14T18:39:57.015Z,12.00
2022-09-14T18:42:29.120Z,11.50
2022-09-14T18:44:58.853Z,12.25
2022-09-14T18:47:33.896Z,10.75
2022-09-14T18:50:03.641Z,12.00
2022-09-14T18:52:34.441Z,10.50
2022-09-14T18:55:06.733Z,10.00
2022-09-14T18:57:36.988Z,13.75
2022-09-14T19:00:08.473Z,10.25
2022-09-14T19:02:40.048Z,12.25
2022-09-14T19:05:12.934Z,12.00
2022-09-14T19:07:43.083Z,12.25
2022-09-14T19:10:14.444Z,11.50
2022-09-14T19:12:45.805Z,9.00
2022-09-14T19:15:17.189Z,10.60
2022-09-14T19:17:51.082Z,10.00
2022-09-14T19:20:23.662Z,11.20
2022-09-14T19:22:54.524Z,11.00
2022-09-14T19:25:25.919Z,11.40
2022-09-14T19:27:55.586Z,11.40
2022-09-14T19:30:28.452Z,7.60
2022-09-14T19:32:58.418Z,11.20
2022-09-14T19:35:30.516Z,11.20
2022-09-14T19:38:00.112Z,10.40
2022-09-14T19:40:31.644Z,9.80
2022-09-14T19:43:02.939Z,9.00
2022-09-14T19:45:35.156Z,11.00
2022-09-14T19:48:06.508Z,10.00
2022-09-14T19:50:38.262Z,10.00
2022-09-14T19:53:08.729Z,8.60
2022-09-14T19:55:40.667Z,11.80
2022-09-14T19:58:13.247Z,12.00
2022-09-14T20:00:43.377Z,9.80
2022-09-14T20:03:20.907Z,11.40
2022-09-14T20:05:59.852Z,12.20
2022-09-14T20:08:30.609Z,9.00
2022-09-14T20:11:17.744Z,8.80
2022-09-14T20:13:53.364Z,10.40
2022-09-14T20:16:38.879Z,1.00
2022-09-14T20:19:13.089Z,8.00
2022-09-14T20:21:46.549Z,11.00
2022-09-14T20:24:27.444Z,11.40
2022-09-14T20:27:01.494Z,10.80
2022-09-14T20:29:35.888Z,11.20
2022-09-14T20:32:08.665Z,11.20
2022-09-14T20:34:40.136Z,10.00
2022-09-14T20:37:10.942Z,10.00
2022-09-14T20:39:42.985Z,10.40
2022-09-14T20:42:14.016Z,10.40
2022-09-14T20:44:44.333Z,10.00
2022-09-14T20:47:18.197Z,10.80
2022-09-14T20:49:52.102Z,9.00
2022-09-14T20:52:22.699Z,10.20
2022-09-14T20:54:53.322Z,11.00
2022-09-14T20:57:25.247Z,10.60
2022-09-14T20:59:55.733Z,10.00
2022-09-14T21:02:30.283Z,10.20
2022-09-14T21:05:03.322Z,9.80
2022-09-14T21:07:34.704Z,10.20
2022-09-14T21:10:08.194Z,10.00
2022-09-14T21:12:39.709Z,9.00
2022-09-14T21:15:10.415Z,9.00
2022-09-14T21:17:41.788Z,9.00
2022-09-14T21:20:14.545Z,9.40
2022-09-14T21:22:47.226Z,8.20
2022-09-14T21:25:17.325Z,10.00
2022-09-14T21:27:48.163Z,8.60
2022-09-14T21:30:18.060Z,9.40
2022-09-14T21:32:53.569Z,8.80
2022-09-14T21:35:23.362Z,5.00
2022-09-14T21:37:56.936Z,8.00
2022-09-14T21:40:32.142Z,9.00
2022-09-14T21:43:02.291Z,7.60
2022-09-14T21:45:33.891Z,10.40
2022-09-14T21:48:11.876Z,9.00
2022-09-14T21:50:45.280Z,10.00
2022-09-14T21:53:17.691Z,9.80
2022-09-14T21:55:49.505Z,9.80
2022-09-14T21:58:19.614Z,9.20
2022-09-14T22:01:03.232Z,11.00
2022-09-14T22:03:33.630Z,10.00
2022-09-14T22:06:06.174Z,8.80
2022-09-14T22:08:40.371Z,10.60
2022-09-14T22:11:18.213Z,10.60
2022-09-14T22:14:02.722Z,10.80
2022-09-14T22:16:37.289Z,10.40
2022-09-14T22:19:12.634Z,11.60
2022-09-14T22:21:43.844Z,10.40
2022-09-14T22:24:20.031Z,11.20
2022-09-14T22:26:51.731Z,10.00
2022-09-14T22:29:23.122Z,11.00
2022-09-14T22:31:55.465Z,11.00
2022-09-14T22:34:27.613Z,9.00
2022-09-14T22:36:58.020Z,13.00
2022-09-14T22:39:28.973Z,11.40
2022-09-14T22:42:00.737Z,9.80
2022-09-14T22:44:31.902Z,9.40
2022-09-14T22:47:03.452Z,9.40
2022-09-14T22:49:34.938Z,11.00
2022-09-14T22:52:05.499Z,9.60
2022-09-14T22:54:35.907Z,9.00
2022-09-14T22:57:05.962Z,9.60
2022-09-14T22:59:36.848Z,10.00
2022-09-14T23:02:08.826Z,9.60
2022-09-14T23:04:39.040Z,7.40
2022-09-14T23:07:09.490Z,9.00
2022-09-14T23:09:40.754Z,7.40
2022-09-14T23:12:10.739Z,9.60
2022-09-14T23:14:44.611Z,8.40
2022-09-14T23:17:16.283Z,8.20
2022-09-14T23:19:46.150Z,9.60
2022-09-14T23:22:18.606Z,9.60
2022-09-14T23:24:49.012Z,8.40
2022-09-14T23:27:19.756Z,9.00
2022-09-14T23:29:49.515Z,8.20
2022-09-14T23:32:19.665Z,9.00
2022-09-14T23:34:50.538Z,9.60
2022-09-14T23:37:20.371Z,10.00
2022-09-14T23:39:51.018Z,8.00
2022-09-14T23:42:21.652Z,8.20
2022-09-14T23:44:53.853Z,8.80
2022-09-14T23:47:26.806Z,8.00
2022-09-14T23:49:56.626Z,9.00
2022-09-14T23:52:26.154Z,8.80
2022-09-14T23:54:58.964Z,8.40
2022-09-14T23:57:30.973Z,9.00
